Deinze, Belgium
Current Conditions -  °F | °C
As of 6:55 AM on Sunday 23 Nov 2014 (Local Time) from EHFS Reporting Station
Clear Clear  
Wind Chill: 52°   Ceiling: Unl
Heat Index: 52°   Visibility: 4mi
Dew Point: 50°   Wind: 12mph
Humidity: 94%   Direction: 140°SE
Pressure: 29.97"   Gusts: NA
Location:  50.98°N, 3.53°E
Report Text: EHFS 230555Z AUTO 14010KT 6000 NSC 11/10 Q1015
Loading
Personal Weather Stations






























Interactive Weather Map New forecast layout! Learn more

10-Day Weather Forecast

Advertisements
Track Severe Weather on mobile